Terminal Aerodrome Forecast
Issued by NWS North Platte, NE

Home | Current Version | Previous Version | Text Only | Print | Product List | Glossary Off
Versions: 1 2 3 4 5 6 7 8 9 10 11 12 13 14 15 16 17 18 19 20 21

000
FTUS43 KLBF 180520
TAFVTN
TAF
KVTN 180520Z 1806/1906 18015KT P6SM BKN200
      TEMPO 1806/1810 VRB25G40KT 2SM +TSRAGS BKN030CB
     FM181400 17005KT P6SM SCT150
     FM181700 16007KT P6SM BKN150
     FM190100 06008KT P6SM SCT150=

USA.gov is the U.S. government's official web portal to all federal, state and local government web resources and services.